createdAt,value
2019-01-14T00:00:52.973Z,10.00
2019-01-14T00:03:21.773Z,10.70
2019-01-14T00:05:51.642Z,10.18
2019-01-14T00:08:20.672Z,12.93
2019-01-14T00:10:49.355Z,11.28
2019-01-14T00:13:18.248Z,11.53
2019-01-14T00:15:47.347Z,13.80
2019-01-14T00:18:18.210Z,8.40
2019-01-14T00:20:47.587Z,9.78
2019-01-14T00:23:16.478Z,11.85
2019-01-14T00:25:45.159Z,11.63
2019-01-14T00:28:14.829Z,12.47
2019-01-14T00:30:44.006Z,11.40
2019-01-14T00:33:12.766Z,10.78
2019-01-14T00:35:44.046Z,11.57
2019-01-14T00:38:12.889Z,7.08
2019-01-14T00:40:41.671Z,7.60
2019-01-14T00:43:10.146Z,11.93
2019-01-14T00:45:39.045Z,12.90
2019-01-14T00:48:07.727Z,13.10
2019-01-14T00:50:36.532Z,9.55
2019-01-14T00:53:05.400Z,7.07
2019-01-14T00:55:33.989Z,12.28
2019-01-14T00:58:02.471Z,7.92
2019-01-14T01:00:31.261Z,12.85
2019-01-14T01:03:00.251Z,9.75
2019-01-14T01:05:28.945Z,8.15
2019-01-14T01:07:57.644Z,11.12
2019-01-14T01:10:26.411Z,5.83
2019-01-14T01:12:54.899Z,7.25
2019-01-14T01:15:25.434Z,6.10
2019-01-14T01:17:54.217Z,5.85
2019-01-14T01:20:22.807Z,5.53
2019-01-14T01:22:52.198Z,5.20
2019-01-14T01:25:22.838Z,5.73
2019-01-14T01:27:51.377Z,4.45
2019-01-14T01:30:20.534Z,4.95
2019-01-14T01:32:49.607Z,5.90
2019-01-14T01:35:18.175Z,5.95
2019-01-14T01:37:47.187Z,5.30
2019-01-14T01:40:18.027Z,4.05
2019-01-14T01:42:46.677Z,5.00
2019-01-14T01:45:16.009Z,5.90
2019-01-14T01:47:44.676Z,3.67
2019-01-14T01:50:15.369Z,3.17
2019-01-14T01:52:44.212Z,6.40
2019-01-14T01:55:13.099Z,3.63
2019-01-14T01:57:41.587Z,3.60
2019-01-14T02:00:15.791Z,2.75
2019-01-14T02:02:44.376Z,5.17
2019-01-14T02:05:13.430Z,4.40
2019-01-14T02:07:42.051Z,4.80
2019-01-14T02:10:16.470Z,5.10
2019-01-14T02:12:44.963Z,6.05
2019-01-14T02:15:16.002Z,5.35
2019-01-14T02:17:44.553Z,6.20
2019-01-14T02:20:15.544Z,6.42
2019-01-14T02:22:44.418Z,4.53
2019-01-14T02:25:15.135Z,5.10
2019-01-14T02:27:43.838Z,2.83
2019-01-14T02:30:16.009Z,8.43
2019-01-14T02:32:44.798Z,6.10
2019-01-14T02:35:13.368Z,6.15
2019-01-14T02:37:42.178Z,4.03
2019-01-14T02:40:16.066Z,6.13
2019-01-14T02:42:44.857Z,7.55
2019-01-14T02:45:15.821Z,7.30
2019-01-14T02:47:44.369Z,6.83
2019-01-14T02:50:13.760Z,6.00
2019-01-14T02:52:42.593Z,7.97
2019-01-14T02:55:11.581Z,5.72
2019-01-14T02:57:40.219Z,6.00
2019-01-14T03:00:15.687Z,5.17
2019-01-14T03:02:44.379Z,6.35
2019-01-14T03:05:13.265Z,3.92
2019-01-14T03:07:42.064Z,5.65
2019-01-14T03:10:11.565Z,8.55
2019-01-14T03:12:40.358Z,6.73
2019-01-14T03:15:10.969Z,5.65
2019-01-14T03:17:39.775Z,9.80
2019-01-14T03:20:14.596Z,5.17
2019-01-14T03:22:43.395Z,4.73
2019-01-14T03:25:12.414Z,7.37
2019-01-14T03:27:42.808Z,9.55
2019-01-14T03:30:15.010Z,6.30
2019-01-14T03:32:44.679Z,6.33
2019-01-14T03:35:13.384Z,7.53
2019-01-14T03:37:44.108Z,6.83
2019-01-14T03:40:14.680Z,5.85
2019-01-14T03:42:44.944Z,9.03
2019-01-14T03:45:13.959Z,6.33
2019-01-14T03:47:42.524Z,7.35
2019-01-14T03:50:17.366Z,6.45
2019-01-14T03:52:46.270Z,8.95
2019-01-14T03:55:14.835Z,10.10
2019-01-14T03:57:44.142Z,11.48
2019-01-14T04:00:17.329Z,7.78
2019-01-14T04:02:46.119Z,9.90
2019-01-14T04:05:16.118Z,6.55
2019-01-14T04:07:44.929Z,10.05
2019-01-14T04:10:15.948Z,8.85
2019-01-14T04:12:44.538Z,5.60
2019-01-14T04:15:16.861Z,9.83
2019-01-14T04:17:45.727Z,8.93
2019-01-14T04:20:16.131Z,8.38
2019-01-14T04:22:45.944Z,5.83
2019-01-14T04:25:14.628Z,5.67
2019-01-14T04:27:43.314Z,7.05
2019-01-14T04:30:18.763Z,6.25
2019-01-14T04:32:49.272Z,6.33
2019-01-14T04:35:18.177Z,4.35
2019-01-14T04:37:46.754Z,7.90
2019-01-14T04:40:15.958Z,4.87
2019-01-14T04:42:44.850Z,4.20
2019-01-14T04:45:15.358Z,4.53
2019-01-14T04:47:44.274Z,4.62
2019-01-14T04:50:17.857Z,3.62
2019-01-14T04:52:46.770Z,6.67
2019-01-14T04:55:15.550Z,5.80
2019-01-14T04:57:44.239Z,3.77
2019-01-14T05:00:19.884Z,2.87
2019-01-14T05:02:48.661Z,3.30
2019-01-14T05:05:17.460Z,4.33
2019-01-14T05:07:47.169Z,3.05
2019-01-14T05:10:17.899Z,3.42
2019-01-14T05:12:46.678Z,3.42
2019-01-14T05:15:15.690Z,4.30
2019-01-14T05:17:44.680Z,6.28
2019-01-14T05:20:21.954Z,5.42
2019-01-14T05:22:50.866Z,3.90
2019-01-14T05:25:19.643Z,4.40
2019-01-14T05:27:48.538Z,4.90
2019-01-14T05:30:18.630Z,5.72
2019-01-14T05:32:47.445Z,5.20
2019-01-14T05:35:17.766Z,5.08
2019-01-14T05:37:46.464Z,5.47
2019-01-14T05:40:23.275Z,7.08
2019-01-14T05:42:51.936Z,4.33
2019-01-14T05:45:20.696Z,5.90
2019-01-14T05:47:49.374Z,6.75
2019-01-14T05:50:18.493Z,6.83
2019-01-14T05:52:47.264Z,5.62
2019-01-14T05:55:16.979Z,6.75
2019-01-14T05:57:45.761Z,4.20
2019-01-14T06:00:32.790Z,7.30
2019-01-14T06:03:13.629Z,6.10
2019-01-14T06:05:42.328Z,5.62
2019-01-14T06:08:11.029Z,5.22
2019-01-14T06:10:39.819Z,4.17
2019-01-14T06:13:08.605Z,6.27
2019-01-14T06:15:37.578Z,3.08
2019-01-14T06:18:06.168Z,4.62
2019-01-14T06:20:35.258Z,3.42
2019-01-14T06:23:03.739Z,4.65
2019-01-14T06:25:32.328Z,5.33
2019-01-14T06:28:01.110Z,5.33
2019-01-14T06:30:30.310Z,4.92
2019-01-14T06:32:59.114Z,3.67
2019-01-14T06:35:27.801Z,5.27
2019-01-14T06:38:00.366Z,5.00
2019-01-14T06:40:28.034Z,5.92
2019-01-14T06:42:56.924Z,5.83
2019-01-14T06:45:26.124Z,5.47
2019-01-14T06:47:54.805Z,6.65
2019-01-14T06:50:23.785Z,6.47
2019-01-14T06:52:52.894Z,6.33
2019-01-14T06:55:21.464Z,9.43
2019-01-14T06:57:50.269Z,7.57
2019-01-14T07:00:23.854Z,9.33
2019-01-14T07:02:52.971Z,10.50
2019-01-14T07:05:21.538Z,12.95
2019-01-14T07:07:50.356Z,13.13
2019-01-14T07:10:22.093Z,12.55
2019-01-14T07:12:50.882Z,10.97
2019-01-14T07:15:19.669Z,10.68
2019-01-14T07:17:48.659Z,11.80
2019-01-14T07:20:18.361Z,10.72
2019-01-14T07:22:49.415Z,9.63
2019-01-14T07:25:17.871Z,8.60
2019-01-14T07:27:46.679Z,12.10
2019-01-14T07:30:17.310Z,9.10
2019-01-14T07:32:47.124Z,9.75
2019-01-14T07:35:16.114Z,12.43
2019-01-14T07:37:45.014Z,8.40
2019-01-14T07:40:15.644Z,12.93
2019-01-14T07:42:46.274Z,11.20
2019-01-14T07:45:16.682Z,10.95
2019-01-14T07:47:45.273Z,11.40
2019-01-14T07:50:15.875Z,11.20
2019-01-14T07:52:46.337Z,10.25
2019-01-14T07:55:14.815Z,9.93
2019-01-14T07:57:44.105Z,9.18
2019-01-14T08:00:15.754Z,10.20
2019-01-14T08:02:44.454Z,10.32
2019-01-14T08:05:13.444Z,9.20
2019-01-14T08:07:42.139Z,10.68
2019-01-14T08:10:10.929Z,9.68
2019-01-14T08:12:41.631Z,7.85
2019-01-14T08:15:15.979Z,7.25
2019-01-14T08:17:44.669Z,8.68
2019-01-14T08:20:15.299Z,7.08
2019-01-14T08:22:43.879Z,10.40
2019-01-14T08:25:13.992Z,6.70
2019-01-14T08:27:42.889Z,6.67
2019-01-14T08:30:17.302Z,8.40
2019-01-14T08:32:46.304Z,8.85
2019-01-14T08:35:14.983Z,6.47
2019-01-14T08:37:44.085Z,6.12
2019-01-14T08:40:14.962Z,8.88
2019-01-14T08:42:43.705Z,7.65
2019-01-14T08:45:13.344Z,6.85
2019-01-14T08:47:42.294Z,5.55
2019-01-14T08:50:14.368Z,4.15
2019-01-14T08:52:45.402Z,5.85
2019-01-14T08:55:14.198Z,4.83
2019-01-14T08:57:43.076Z,4.03
2019-01-14T09:00:17.722Z,4.30
2019-01-14T09:02:48.150Z,5.12
2019-01-14T09:05:17.959Z,5.50
2019-01-14T09:07:46.749Z,6.28
2019-01-14T09:10:18.504Z,7.28
2019-01-14T09:12:47.189Z,6.22
2019-01-14T09:15:19.546Z,5.97
2019-01-14T09:17:52.138Z,5.42
2019-01-14T09:20:22.228Z,5.92
2019-01-14T09:22:51.027Z,4.97
2019-01-14T09:25:19.840Z,5.62
2019-01-14T09:27:48.732Z,8.28
2019-01-14T09:30:20.271Z,6.67
2019-01-14T09:32:49.580Z,3.85
2019-01-14T09:35:18.351Z,3.62
2019-01-14T09:37:47.047Z,4.55
2019-01-14T09:40:19.005Z,3.65
2019-01-14T09:42:48.012Z,4.17
2019-01-14T09:45:16.703Z,2.65
2019-01-14T09:47:45.473Z,3.37
2019-01-14T09:50:15.361Z,4.17
2019-01-14T09:52:44.192Z,4.92
2019-01-14T09:55:15.241Z,2.22
2019-01-14T09:57:44.206Z,3.80
2019-01-14T10:00:13.331Z,4.45
2019-01-14T10:02:42.211Z,4.77
2019-01-14T10:05:12.888Z,2.50
2019-01-14T10:07:41.832Z,3.13
2019-01-14T10:10:12.696Z,2.40
2019-01-14T10:12:41.882Z,3.95
2019-01-14T10:15:13.295Z,3.43
2019-01-14T10:17:42.412Z,5.87
2019-01-14T10:20:12.113Z,4.20
2019-01-14T10:22:40.912Z,6.42
2019-01-14T10:25:09.779Z,4.83
2019-01-14T10:27:38.892Z,4.85
2019-01-14T10:30:10.858Z,2.40
2019-01-14T10:32:39.532Z,5.60
2019-01-14T10:35:09.052Z,4.00
2019-01-14T10:37:37.732Z,5.27
2019-01-14T10:40:10.212Z,3.33
2019-01-14T10:42:39.092Z,1.65
2019-01-14T10:45:11.046Z,4.67
2019-01-14T10:47:39.742Z,4.00
2019-01-14T10:50:11.312Z,6.83
2019-01-14T10:52:40.272Z,3.72
2019-01-14T10:55:12.542Z,5.15
2019-01-14T10:57:41.156Z,4.50
2019-01-14T11:00:15.346Z,4.10
2019-01-14T11:02:48.029Z,6.00
2019-01-14T11:05:19.192Z,3.83
2019-01-14T11:07:48.992Z,4.97
2019-01-14T11:10:17.795Z,7.30
2019-01-14T11:12:46.673Z,6.50
2019-01-14T11:15:17.467Z,4.65
2019-01-14T11:17:46.590Z,3.10
2019-01-14T11:20:18.154Z,2.50
2019-01-14T11:22:47.054Z,2.00
2019-01-14T11:25:16.018Z,4.80
2019-01-14T11:27:44.935Z,1.87
2019-01-14T11:30:22.212Z,6.72
2019-01-14T11:32:51.012Z,6.58
2019-01-14T11:35:19.683Z,2.22
2019-01-14T11:37:48.692Z,3.70
2019-01-14T11:40:22.983Z,2.90
2019-01-14T11:42:51.793Z,3.40
2019-01-14T11:45:20.374Z,4.12
2019-01-14T11:47:49.244Z,3.40
2019-01-14T11:50:18.352Z,4.37
2019-01-14T11:52:47.134Z,2.85
2019-01-14T11:55:16.053Z,1.60
2019-01-14T11:57:44.932Z,2.55
2019-01-14T12:00:22.413Z,3.92
2019-01-14T12:02:51.212Z,4.92
2019-01-14T12:05:20.092Z,5.42
2019-01-14T12:07:48.992Z,2.40
2019-01-14T12:10:17.773Z,2.55
2019-01-14T12:12:46.689Z,2.47
2019-01-14T12:15:23.691Z,1.77
2019-01-14T12:17:52.532Z,3.17
2019-01-14T12:20:21.232Z,3.65
2019-01-14T12:22:50.313Z,3.98
2019-01-14T12:25:19.904Z,3.40
2019-01-14T12:27:49.012Z,6.00
2019-01-14T12:30:27.291Z,2.72
2019-01-14T12:32:55.808Z,5.12
2019-01-14T12:35:24.593Z,5.30
2019-01-14T12:37:53.592Z,1.85
2019-01-14T12:40:24.976Z,3.52
2019-01-14T12:42:52.610Z,2.40
2019-01-14T12:47:49.887Z,3.37
2019-01-14T12:50:21.119Z,3.10
2019-01-14T12:52:50.215Z,3.47
2019-01-14T12:55:19.431Z,3.65
2019-01-14T12:57:48.312Z,4.20
2019-01-14T13:00:19.870Z,3.00
2019-01-14T13:02:48.763Z,4.53
2019-01-14T13:05:18.602Z,3.47
2019-01-14T13:07:48.273Z,5.47
2019-01-14T13:10:16.961Z,4.85
2019-01-14T13:12:45.753Z,5.40
2019-01-14T13:15:16.830Z,4.72
2019-01-14T13:17:45.673Z,1.85
2019-01-14T16:35:30.232Z,4.58
2019-01-14T16:37:59.112Z,4.95
2019-01-14T16:40:27.833Z,4.72
2019-01-14T16:42:56.792Z,4.35
2019-01-14T16:45:25.660Z,0.95
2019-01-14T16:47:54.573Z,3.17
2019-01-14T16:50:23.573Z,3.65
2019-01-14T16:52:52.227Z,3.58
2019-01-14T16:55:22.347Z,3.83
2019-01-14T16:57:51.489Z,1.40
2019-01-14T17:00:19.928Z,2.65
2019-01-14T17:02:48.507Z,3.62
2019-01-14T17:05:17.513Z,4.80
2019-01-14T17:07:46.391Z,2.22
2019-01-14T17:10:16.098Z,5.00
2019-01-14T17:12:45.130Z,2.62
2019-01-14T17:15:14.119Z,3.70
2019-01-14T17:17:42.765Z,3.25
2019-01-14T17:20:19.253Z,3.05
2019-01-14T17:22:48.170Z,2.98
2019-01-14T17:25:24.921Z,3.45
2019-01-14T17:27:56.955Z,2.37
2019-01-14T17:30:28.972Z,3.77
2019-01-14T17:33:01.814Z,1.95
2019-01-14T17:35:32.354Z,3.70
2019-01-14T17:38:01.575Z,2.83
2019-01-14T17:40:32.768Z,2.67
2019-01-14T17:43:01.068Z,2.85
2019-01-14T17:45:29.967Z,2.90
2019-01-14T17:47:58.778Z,3.45
2019-01-14T17:50:30.940Z,3.98
2019-01-14T17:52:59.850Z,2.22
2019-01-14T17:55:28.814Z,3.15
2019-01-14T17:57:57.730Z,4.15
2019-01-14T18:00:26.692Z,3.60
2019-01-14T18:02:55.893Z,1.67
2019-01-14T18:05:24.672Z,2.50
2019-01-14T18:07:53.343Z,3.83
2019-01-14T18:10:22.460Z,6.15
2019-01-14T18:12:51.269Z,4.70
2019-01-14T18:15:20.023Z,1.57
2019-01-14T18:17:49.133Z,2.42
2019-01-14T18:20:18.799Z,5.25
2019-01-14T18:22:47.726Z,1.67
2019-01-14T18:25:16.832Z,3.42
2019-01-14T18:27:45.956Z,4.78
2019-01-14T18:30:17.161Z,2.08
2019-01-14T18:32:46.273Z,3.80
2019-01-14T18:35:16.970Z,6.10
2019-01-14T18:37:45.693Z,4.42
2019-01-14T18:40:16.559Z,5.75
2019-01-14T18:42:45.512Z,1.70
2019-01-14T18:45:15.934Z,2.40
2019-01-14T18:47:44.942Z,3.75
2019-01-14T18:50:15.797Z,3.25
2019-01-14T18:52:44.552Z,1.60
2019-01-14T18:55:13.426Z,2.58
2019-01-14T18:57:42.221Z,4.15
2019-01-14T19:00:19.012Z,1.07
2019-01-14T19:02:47.792Z,4.55
2019-01-14T19:05:16.693Z,2.62
2019-01-14T19:07:45.460Z,2.90
2019-01-14T19:10:14.779Z,2.33
2019-01-14T19:12:44.272Z,6.78
2019-01-14T19:15:18.176Z,3.08
2019-01-14T19:17:46.639Z,3.62
2019-01-14T19:20:21.541Z,1.95
2019-01-14T19:22:50.464Z,1.50
2019-01-14T19:25:19.153Z,2.72
2019-01-14T19:27:48.044Z,3.42
2019-01-14T19:30:21.334Z,5.47
2019-01-14T19:32:50.217Z,1.95
2019-01-14T19:35:19.149Z,3.02
2019-01-14T19:37:49.148Z,3.25
2019-01-14T19:40:19.354Z,1.77
2019-01-14T19:42:48.266Z,2.35
2019-01-14T19:45:18.978Z,2.50
2019-01-14T19:47:47.909Z,3.00
2019-01-14T19:50:18.815Z,3.50
2019-01-14T19:52:47.802Z,2.50
2019-01-14T19:55:16.713Z,1.52
2019-01-14T19:57:45.593Z,2.37
2019-01-14T20:00:20.533Z,6.22
2019-01-14T20:02:49.411Z,3.00
2019-01-14T20:05:18.811Z,3.58
2019-01-14T20:07:49.061Z,5.37
2019-01-14T20:10:17.814Z,3.02
2019-01-14T20:12:50.282Z,2.15
2019-01-14T20:15:20.721Z,2.60
2019-01-14T20:17:49.300Z,3.83
2019-01-14T20:20:18.091Z,1.55
2019-01-14T20:22:46.984Z,5.87
2019-01-14T20:25:15.689Z,5.95
2019-01-14T20:27:44.553Z,2.95
2019-01-14T20:30:16.334Z,6.50
2019-01-14T20:32:45.013Z,2.95
2019-01-14T20:35:13.911Z,4.30
2019-01-14T20:37:42.902Z,4.05
2019-01-14T20:40:13.816Z,2.62
2019-01-14T20:42:42.507Z,5.33
2019-01-14T20:45:13.484Z,2.55
2019-01-14T20:47:42.667Z,4.20
2019-01-14T20:50:13.912Z,4.85
2019-01-14T20:52:42.792Z,5.75
2019-01-14T20:55:11.656Z,2.87
2019-01-14T20:57:40.576Z,5.80
2019-01-14T21:00:12.825Z,1.82
2019-01-14T21:02:41.728Z,2.27
2019-01-14T21:05:10.809Z,1.45
2019-01-14T21:07:39.812Z,3.30
2019-01-14T21:10:11.037Z,3.75
2019-01-14T21:12:39.844Z,1.72
2019-01-14T21:15:10.908Z,2.90
2019-01-14T21:17:39.775Z,1.65
2019-01-14T21:20:11.840Z,2.62
2019-01-14T21:22:40.852Z,1.57
2019-01-14T21:25:09.611Z,1.45
2019-01-14T21:27:38.497Z,1.12
2019-01-14T21:30:15.591Z,3.50
2019-01-14T21:32:44.484Z,2.50
2019-01-14T21:35:13.291Z,3.70
2019-01-14T21:37:43.689Z,3.90
2019-01-14T21:40:13.670Z,1.10
2019-01-14T21:42:42.520Z,2.62
2019-01-14T21:45:13.083Z,3.05
2019-01-14T21:47:42.622Z,4.83
2019-01-14T21:50:20.527Z,2.50
2019-01-14T21:52:52.621Z,4.22
2019-01-14T21:55:25.463Z,5.45
2019-01-14T21:57:54.387Z,1.62
2019-01-14T22:00:23.742Z,3.65
2019-01-14T22:02:52.337Z,8.08
2019-01-14T22:05:20.946Z,2.62
2019-01-14T22:07:49.747Z,1.15
2019-01-14T22:10:23.956Z,4.58
2019-01-14T22:12:52.590Z,5.03
2019-01-14T22:15:21.320Z,4.22
2019-01-14T22:17:50.428Z,3.58
2019-01-14T22:20:21.878Z,3.72
2019-01-14T22:22:50.448Z,3.72
2019-01-14T22:25:19.440Z,7.80
2019-01-14T22:27:48.128Z,4.40
2019-01-14T22:30:19.691Z,2.65
2019-01-14T22:32:48.474Z,3.15
2019-01-14T22:35:17.052Z,3.08
2019-01-14T22:37:45.952Z,3.17
2019-01-14T22:40:15.451Z,4.30
2019-01-14T22:42:44.208Z,4.83
2019-01-14T22:45:13.332Z,3.05
2019-01-14T22:47:42.118Z,2.45
2019-01-14T22:50:16.851Z,4.53
2019-01-14T22:52:45.762Z,3.62
2019-01-14T22:55:14.524Z,4.78
2019-01-14T22:57:43.101Z,2.25
2019-01-14T23:00:59.305Z,8.00
2019-01-14T23:03:28.001Z,2.00
2019-01-14T23:05:56.554Z,3.45
2019-01-14T23:08:25.571Z,3.75
2019-01-14T23:10:54.272Z,3.10
2019-01-14T23:13:23.042Z,2.33
2019-01-14T23:15:52.047Z,2.62
2019-01-14T23:18:20.731Z,6.58
2019-01-14T23:20:49.425Z,6.40
2019-01-14T23:23:18.406Z,2.95
2019-01-14T23:25:47.284Z,3.72
2019-01-14T23:28:16.305Z,2.20
2019-01-14T23:30:45.086Z,4.30
2019-01-14T23:33:13.959Z,1.80
2019-01-14T23:35:42.927Z,3.98
2019-01-14T23:38:11.956Z,3.92
2019-01-14T23:40:40.634Z,2.87
2019-01-14T23:43:09.217Z,2.98
2019-01-14T23:45:37.917Z,2.83
2019-01-14T23:48:06.586Z,3.30
2019-01-14T23:50:35.166Z,2.52
2019-01-14T23:53:05.921Z,1.92
2019-01-14T23:55:34.711Z,8.20
2019-01-14T23:58:03.477Z,5.60
